Strona główna
METAR-TAF:

METAR-TAF

Lotnisko :

Oswego County Airport

Fulton, Nowy Jork, Stany Zjednoczone

Szerokość geograficzna: 43-21-03N, Długość geograficzna: 076-23-17W, wysokość: 145 m

Aktualna obserwacja pogody

Raport powstał 20 minut temu, godzina 10:49 UTC
Wiatr 9 kt od południowy wschód w porywach dochodzący do 17 kt
Temperatura -2°C
Wilgotność 80%
Ciśnienie 1021 hPa
Widzialność: 2.8 km
Zachmurzenie całkowite na wysokości 2900 ft
słaby śnieg

METAR: KFZY 181049Z AUTO 13009G17KT 1 3/4SM -SN OVC029 M02/M05 A3014 RMK AO2 SNE14B44 P0000

czas: 06:09 (11:09 UTC)


TAF: brakujący

Obserwacja i prognoza pogody dla ponad 4000 lotnisk (raport METAR i TAF).

Dostępne stacje oznaczono żółtymi i czerwonymi punktami na mapie.

Najedź kursorem aby zobaczyć nazwę stacji.

Kliknij aby zobaczyć obserwacje i prognozy pogody.

Aby zmienić mapę: kliknij na zielony przycisk z czarnym krzyżykiem, aby powiększyć; na zielony przycisk z myślnikiem, aby pomniejszyć; na zielone strzałki, aby przejść do map sąsiednich.


METAR-TAF: